Sonseca, Spain
Current Conditions -  °F | °C
As of 5:00 PM on Thursday 30 Oct 2014 (Local Time) from LEGT Reporting Station
Clear Clear  
Wind Chill: 77°   Ceiling: Unl
Heat Index: 78°   Visibility: 6mi
Dew Point: 48°   Wind: 0mph
Humidity: 36%   Direction: NA
Pressure: 30.15"   Gusts: NA
Location:  39.68°N, 3.97°W
Report Text: LEGT 301600Z 00000KT CAVOK 25/09 Q1021
Loading
Personal Weather Stations






























Interactive Weather Map
Tropical Storm Tracking
New forecast layout! Learn more

10-Day Weather Forecast

Advertisements
Track Severe Weather on mobile